createdAt,value
2018-08-04T00:01:30.664Z,48.10
2018-08-04T00:04:02.512Z,48.60
2018-08-04T00:06:57.426Z,48.60
2018-08-04T00:09:28.595Z,48.40
2018-08-04T00:11:59.774Z,49.00
2018-08-04T00:14:30.797Z,48.20
2018-08-04T00:19:47.717Z,48.20
2018-08-04T00:22:19.312Z,48.30
2018-08-04T00:24:50.806Z,49.10
2018-08-04T00:27:22.216Z,48.40
2018-08-04T00:29:53.695Z,48.90
2018-08-04T00:32:25.193Z,48.40
2018-08-04T00:34:56.703Z,49.20
2018-08-04T00:37:28.309Z,48.40
2018-08-04T00:39:59.745Z,48.20
2018-08-04T00:42:31.568Z,48.80
2018-08-04T00:45:03.229Z,48.50
2018-08-04T00:47:34.672Z,49.20
2018-08-04T00:50:08.731Z,48.90
2018-08-04T00:52:40.303Z,48.90
2018-08-04T00:55:11.728Z,48.90
2018-08-04T00:57:43.311Z,49.20
2018-08-04T01:00:14.858Z,48.60
2018-08-04T01:02:45.509Z,48.30
2018-08-04T01:05:16.895Z,48.30
2018-08-04T01:07:47.556Z,49.10
2018-08-04T01:10:18.992Z,48.70
2018-08-04T01:12:50.362Z,48.70
2018-08-04T01:15:21.869Z,49.20
2018-08-04T01:17:52.577Z,48.80
2018-08-04T01:20:24.186Z,48.90
2018-08-04T01:22:55.698Z,48.90
2018-08-04T01:25:27.432Z,48.60
2018-08-04T01:27:58.762Z,49.10
2018-08-04T01:30:30.653Z,48.60
2018-08-04T01:33:02.212Z,48.10
2018-08-04T01:35:33.719Z,48.40
2018-08-04T01:38:05.226Z,49.10
2018-08-04T01:41:12.731Z,48.60
2018-08-04T01:43:43.818Z,48.70
2018-08-04T01:46:14.843Z,48.60
2018-08-04T01:48:45.350Z,48.00
2018-08-04T01:51:16.596Z,47.90
2018-08-04T01:53:47.734Z,48.90
2018-08-04T01:56:18.897Z,48.90
2018-08-04T01:58:49.356Z,48.20
2018-08-04T02:01:20.565Z,48.00
2018-08-04T02:06:35.358Z,48.60
2018-08-04T02:09:09.711Z,48.90
2018-08-04T02:11:41.303Z,48.70
2018-08-04T02:14:12.915Z,49.20
2018-08-04T02:16:44.411Z,48.50
2018-08-04T02:19:15.796Z,48.80
2018-08-04T02:21:46.539Z,48.70
2018-08-04T02:24:18.017Z,49.20
2018-08-04T02:26:49.630Z,49.60
2018-08-04T02:29:21.204Z,48.30
2018-08-04T02:31:52.470Z,49.30
2018-08-04T02:34:23.832Z,49.50
2018-08-04T02:36:54.535Z,49.50
2018-08-04T02:39:25.901Z,49.10
2018-08-04T02:41:57.421Z,49.80
2018-08-04T02:44:29.242Z,49.80
2018-08-04T02:47:00.727Z,50.10
2018-08-04T02:49:32.222Z,50.00
2018-08-04T02:52:03.715Z,50.00
2018-08-04T02:54:35.222Z,50.80
2018-08-04T02:57:06.682Z,50.70
2018-08-04T02:59:37.998Z,51.20
2018-08-04T03:02:09.591Z,50.90
2018-08-04T03:04:46.787Z,51.10
2018-08-04T03:07:18.368Z,51.20
2018-08-04T03:09:49.850Z,50.40
2018-08-04T03:12:20.529Z,50.70
2018-08-04T03:14:52.189Z,50.90
2018-08-04T03:17:23.718Z,51.10
2018-08-04T03:19:55.263Z,51.40
2018-08-04T03:22:27.424Z,51.60
2018-08-04T03:24:59.632Z,51.50
2018-08-04T03:27:31.222Z,51.40
2018-08-04T03:30:02.698Z,51.60
2018-08-04T03:32:34.222Z,51.40
2018-08-04T03:35:05.685Z,51.20
2018-08-04T03:37:37.204Z,51.30
2018-08-04T03:40:08.796Z,51.70
2018-08-04T03:42:40.373Z,51.40
2018-08-04T03:45:11.778Z,51.20
2018-08-04T03:47:43.425Z,52.00
2018-08-04T03:50:14.865Z,51.10
2018-08-04T03:52:45.551Z,51.80
2018-08-04T03:55:17.224Z,51.10
2018-08-04T03:57:48.745Z,51.70
2018-08-04T04:00:20.338Z,52.00
2018-08-04T04:02:51.796Z,51.20
2018-08-04T04:05:23.303Z,52.10
2018-08-04T04:07:54.750Z,51.60
2018-08-04T04:10:26.405Z,52.10
2018-08-04T04:12:57.776Z,51.80
2018-08-04T04:15:29.403Z,52.00
2018-08-04T04:18:01.511Z,51.80
2018-08-04T04:20:32.984Z,52.10
2018-08-04T04:23:04.417Z,52.20
2018-08-04T04:25:35.782Z,52.10
2018-08-04T04:30:37.555Z,52.30
2018-08-04T04:33:08.833Z,52.20
2018-08-04T04:35:39.560Z,52.50
2018-08-04T04:38:11.054Z,52.10
2018-08-04T04:40:42.673Z,52.30
2018-08-04T04:43:14.313Z,52.60
2018-08-04T04:45:45.761Z,52.60
2018-08-04T04:53:18.803Z,51.80
2018-08-04T04:55:50.316Z,52.40
2018-08-04T04:58:21.804Z,51.90
2018-08-04T05:00:53.364Z,52.50
2018-08-04T05:03:24.823Z,52.30
2018-08-04T05:05:55.925Z,52.70
2018-08-04T05:08:27.453Z,52.40
2018-08-04T05:10:58.826Z,53.00
2018-08-04T05:13:29.638Z,53.10
2018-08-04T05:16:01.217Z,52.60
2018-08-04T05:18:32.727Z,52.80
2018-08-04T05:21:04.224Z,52.90
2018-08-04T05:23:35.658Z,53.60
2018-08-04T05:26:07.234Z,52.10
2018-08-04T05:28:38.761Z,52.40
2018-08-04T05:31:10.289Z,52.00
2018-08-04T05:33:41.784Z,51.70
2018-08-04T05:38:45.682Z,51.60
2018-08-04T05:41:17.222Z,51.40
2018-08-04T05:43:48.712Z,51.70
2018-08-04T05:46:24.214Z,51.70
2018-08-04T05:48:57.597Z,51.30
2018-08-04T05:51:29.385Z,51.40
2018-08-04T05:54:00.898Z,50.90
2018-08-04T05:56:31.630Z,51.00
2018-08-04T05:59:02.917Z,51.00
2018-08-04T06:01:34.532Z,51.30
2018-08-04T06:04:06.081Z,51.50
2018-08-04T06:06:37.742Z,51.20
2018-08-04T06:09:11.950Z,51.00
2018-08-04T06:11:43.651Z,50.80
2018-08-04T06:14:15.389Z,51.60
2018-08-04T06:16:46.858Z,51.30
2018-08-04T06:19:17.609Z,51.10
2018-08-04T06:21:50.557Z,50.70
2018-08-04T06:24:21.893Z,51.20
2018-08-04T06:26:53.409Z,51.30
2018-08-04T06:29:24.853Z,51.50
2018-08-04T06:31:55.542Z,52.00
2018-08-04T06:34:27.301Z,51.40
2018-08-04T06:36:58.651Z,51.80
2018-08-04T06:39:30.209Z,52.00
2018-08-04T06:42:01.675Z,52.90
2018-08-04T06:44:33.312Z,52.20
2018-08-04T06:47:04.765Z,52.10
2018-08-04T06:49:36.450Z,52.30
2018-08-04T06:52:07.858Z,51.70
2018-08-04T06:54:38.741Z,52.10
2018-08-04T06:57:10.296Z,51.90
2018-08-04T06:59:41.971Z,51.90
2018-08-04T07:02:13.581Z,52.30
2018-08-04T07:04:45.372Z,52.50
2018-08-04T07:07:16.801Z,52.60
2018-08-04T07:09:48.469Z,52.70
2018-08-04T07:12:19.989Z,52.40
2018-08-04T07:14:51.678Z,52.60
2018-08-04T07:17:23.005Z,52.70
2018-08-04T07:19:54.686Z,52.70
2018-08-04T07:22:26.366Z,52.50
2018-08-04T07:24:58.219Z,52.60
2018-08-04T07:27:55.343Z,52.70
2018-08-04T07:30:27.425Z,52.20
2018-08-04T07:32:58.661Z,52.60
2018-08-04T07:35:29.895Z,52.70
2018-08-04T07:38:00.318Z,52.80
2018-08-04T07:40:31.585Z,52.70
2018-08-04T07:43:02.723Z,52.70
2018-08-04T07:45:33.893Z,52.70
2018-08-04T07:48:04.366Z,53.40
2018-08-04T07:56:32.583Z,52.70
2018-08-04T07:59:03.746Z,52.70
2018-08-04T08:01:35.301Z,52.70
2018-08-04T08:04:06.665Z,52.40
2018-08-04T08:06:38.195Z,52.70
2018-08-04T08:09:10.325Z,52.70
2018-08-04T08:11:52.811Z,52.80
2018-08-04T08:14:29.903Z,52.70
2018-08-04T08:19:42.647Z,52.70
2018-08-04T08:22:14.298Z,52.70
2018-08-04T08:24:45.592Z,52.70
2018-08-04T08:32:42.843Z,52.70
2018-08-04T08:35:13.835Z,52.80
2018-08-04T08:37:44.319Z,52.40
2018-08-04T08:40:16.352Z,52.40
2018-08-04T08:42:47.563Z,52.80
2018-08-04T08:45:19.203Z,52.70
2018-08-04T08:47:50.488Z,52.80
2018-08-04T08:50:21.615Z,52.80
2018-08-04T08:52:52.698Z,52.80
2018-08-04T08:55:23.712Z,52.80
2018-08-04T08:57:54.847Z,52.90
2018-08-04T09:00:25.980Z,52.80
2018-08-04T09:02:57.224Z,52.50
2018-08-04T09:15:59.206Z,52.70
2018-08-04T09:18:30.712Z,52.70
2018-08-04T09:21:13.725Z,52.80
2018-08-04T09:29:01.209Z,51.90
2018-08-04T09:31:44.344Z,52.70
2018-08-04T09:34:15.763Z,52.80
2018-08-04T09:36:47.038Z,52.80
2018-08-04T09:39:30.573Z,52.50
2018-08-04T09:42:01.726Z,52.90
2018-08-04T09:44:32.694Z,52.90
2018-08-04T09:52:06.893Z,52.00
2018-08-04T09:54:38.195Z,52.70
2018-08-04T09:57:10.668Z,52.90
2018-08-04T09:59:41.902Z,52.80
2018-08-04T10:02:13.673Z,52.90
2018-08-04T10:04:44.747Z,52.90
2018-08-04T10:07:15.866Z,53.00
2018-08-04T10:09:46.353Z,52.60
2018-08-04T10:12:17.738Z,53.60
2018-08-04T10:14:49.226Z,53.00
2018-08-04T10:17:31.673Z,52.80
2018-08-04T10:20:13.630Z,53.00
2018-08-04T10:22:45.691Z,53.00
2018-08-04T10:28:04.709Z,53.10
2018-08-04T10:30:36.550Z,53.10
2018-08-04T10:33:13.664Z,53.10
2018-08-04T10:35:44.757Z,53.10
2018-08-04T10:38:16.046Z,53.10
2018-08-04T10:40:47.610Z,53.40
2018-08-04T10:43:18.704Z,53.10
2018-08-04T10:48:33.760Z,53.10
2018-08-04T10:51:11.786Z,53.20
2018-08-04T10:53:54.506Z,52.80
2018-08-04T10:56:25.672Z,52.80
2018-08-04T10:58:57.316Z,53.10
2018-08-04T11:01:28.772Z,53.10
2018-08-04T11:04:00.369Z,53.10
2018-08-04T11:06:31.745Z,52.80
2018-08-04T11:09:03.392Z,53.80
2018-08-04T11:11:34.788Z,52.80
2018-08-04T11:14:06.732Z,53.10
2018-08-04T11:21:42.206Z,52.30
2018-08-04T11:24:13.771Z,53.10
2018-08-04T11:26:45.754Z,53.10
2018-08-04T11:31:09.917Z,54.00
2018-08-04T11:33:40.841Z,52.90
2018-08-04T11:36:35.500Z,53.20
2018-08-04T11:45:23.740Z,52.90
2018-08-04T11:47:55.824Z,53.20
2018-08-04T11:50:26.332Z,52.90
2018-08-04T11:52:57.581Z,52.90
2018-08-04T11:55:28.796Z,53.20
2018-08-04T11:57:59.799Z,53.20
2018-08-04T12:00:30.843Z,52.90
2018-08-04T12:03:01.327Z,52.80
2018-08-04T12:05:32.614Z,52.90
2018-08-04T12:08:03.744Z,53.20
2018-08-04T12:15:36.651Z,52.20
2018-08-04T12:18:07.852Z,53.10
2018-08-04T12:20:38.358Z,53.00
2018-08-04T12:23:09.667Z,52.60
2018-08-04T12:25:40.766Z,53.10
2018-08-04T12:28:11.775Z,53.10
2018-08-04T12:30:42.924Z,53.70
2018-08-04T12:33:13.855Z,52.70
2018-08-04T12:35:44.367Z,53.10
2018-08-04T12:38:15.597Z,52.80
2018-08-04T12:40:46.765Z,53.00
2018-08-04T12:43:17.793Z,53.10
2018-08-04T12:45:48.880Z,52.70
2018-08-04T12:48:19.368Z,52.70
2018-08-04T12:50:50.575Z,52.70
2018-08-04T12:53:21.685Z,53.00
2018-08-04T12:55:52.657Z,53.00
2018-08-04T12:58:23.686Z,53.10
2018-08-04T13:00:55.013Z,53.00
2018-08-04T13:03:26.230Z,53.00
2018-08-04T13:05:57.509Z,53.10
2018-08-04T13:08:28.663Z,53.00
2018-08-04T13:10:59.755Z,53.00
2018-08-04T13:13:30.900Z,53.00
2018-08-04T13:16:01.465Z,52.70
2018-08-04T13:18:32.720Z,53.00
2018-08-04T13:21:03.882Z,53.00
2018-08-04T13:23:34.474Z,53.00
2018-08-04T13:26:05.706Z,53.00
2018-08-04T13:28:36.775Z,53.10
2018-08-04T13:31:07.872Z,53.00
2018-08-04T13:33:38.395Z,52.70
2018-08-04T13:36:09.708Z,52.70
2018-08-04T13:38:40.788Z,53.10
2018-08-04T13:46:13.738Z,52.20
2018-08-04T13:48:44.790Z,52.90
2018-08-04T13:51:15.837Z,53.20
2018-08-04T13:53:46.331Z,52.80
2018-08-04T13:56:18.070Z,53.00
2018-08-04T13:58:49.536Z,53.20
2018-08-04T14:01:20.667Z,53.20
2018-08-04T14:03:51.715Z,53.20
2018-08-04T14:06:22.776Z,53.20
2018-08-04T14:08:53.795Z,53.30
2018-08-04T14:11:24.888Z,53.00
2018-08-04T14:13:55.338Z,53.00
2018-08-04T14:16:26.624Z,53.30
2018-08-04T14:18:57.712Z,53.30
2018-08-04T14:21:29.218Z,53.30
2018-08-04T14:24:00.575Z,53.30
2018-08-04T14:26:31.755Z,53.30
2018-08-04T14:29:02.881Z,53.40
2018-08-04T14:31:33.368Z,53.00
2018-08-04T14:34:04.618Z,53.40
2018-08-04T14:36:36.461Z,53.30
2018-08-04T14:39:13.315Z,53.30
2018-08-04T14:41:44.681Z,53.40
2018-08-04T14:44:16.240Z,53.40
2018-08-04T14:46:47.761Z,53.40
2018-08-04T14:49:19.392Z,53.40
2018-08-04T14:51:50.864Z,53.00
2018-08-04T14:54:21.823Z,53.40
2018-08-04T14:56:53.048Z,53.00
2018-08-04T14:59:24.738Z,53.00
2018-08-04T15:01:56.041Z,53.40
2018-08-04T15:04:39.017Z,53.00
2018-08-04T15:07:10.699Z,53.40
2018-08-04T15:09:41.679Z,53.40
2018-08-04T15:12:12.855Z,53.40
2018-08-04T15:21:11.500Z,53.10
2018-08-04T15:23:42.664Z,53.40
2018-08-04T15:26:13.705Z,53.50
2018-08-04T15:28:44.770Z,53.40
2018-08-04T15:31:16.726Z,53.50
2018-08-04T15:33:47.843Z,53.10
2018-08-04T15:36:19.247Z,53.40
2018-08-04T15:38:57.217Z,53.10
2018-08-04T15:41:28.588Z,53.40
2018-08-04T15:47:12.706Z,53.50
2018-08-04T15:49:43.777Z,53.80
2018-08-04T15:57:23.607Z,52.60
2018-08-04T15:59:54.681Z,53.30
2018-08-04T16:02:25.742Z,53.40
2018-08-04T16:07:27.679Z,54.20
2018-08-04T16:09:58.795Z,53.40
2018-08-04T16:12:29.805Z,53.50
2018-08-04T16:20:02.701Z,52.60
2018-08-04T16:22:33.737Z,53.20
2018-08-04T16:25:04.842Z,52.80
2018-08-04T16:30:29.851Z,52.90
2018-08-04T16:33:00.370Z,53.30
2018-08-04T16:35:31.705Z,53.00
2018-08-04T16:38:03.332Z,53.40
2018-08-04T16:40:41.432Z,53.40
2018-08-04T16:43:18.333Z,53.40
2018-08-04T16:53:00.493Z,53.40
2018-08-04T16:55:31.777Z,53.60
2018-08-04T16:58:02.912Z,53.60
2018-08-04T17:03:58.653Z,53.60
2018-08-04T17:06:29.848Z,53.70
2018-08-04T17:09:00.387Z,53.60
2018-08-04T17:11:31.623Z,53.10
2018-08-04T17:14:02.748Z,53.60
2018-08-04T17:16:34.705Z,53.60
2018-08-04T17:19:05.811Z,53.70
2018-08-04T17:21:36.858Z,54.20
2018-08-04T17:24:08.815Z,53.40
2018-08-04T17:29:41.382Z,53.20
2018-08-04T17:35:04.902Z,53.50
2018-08-04T17:37:35.675Z,53.80
2018-08-04T17:40:07.682Z,54.20
2018-08-04T17:42:39.220Z,53.50
2018-08-04T17:45:10.472Z,54.20
2018-08-04T17:47:43.496Z,53.60
2018-08-04T17:50:14.731Z,53.60
2018-08-04T17:52:46.916Z,53.50
2018-08-04T17:58:00.022Z,53.60
2018-08-04T18:00:31.217Z,53.60
2018-08-04T18:03:02.535Z,53.60
2018-08-04T18:05:33.628Z,53.60
2018-08-04T18:08:04.733Z,53.60
2018-08-04T18:10:35.827Z,53.60
2018-08-04T18:23:08.844Z,52.60
2018-08-04T18:25:39.363Z,53.00
2018-08-04T18:28:10.587Z,53.10
2018-08-04T18:30:41.710Z,54.10
2018-08-04T18:33:12.828Z,53.60
2018-08-04T18:35:43.315Z,53.60
2018-08-04T18:38:14.593Z,53.30
2018-08-04T18:40:45.746Z,53.70
2018-08-04T18:43:16.860Z,53.60
2018-08-04T18:45:47.362Z,53.30
2018-08-04T18:48:18.650Z,53.30
2018-08-04T18:50:49.702Z,53.70
2018-08-04T18:53:20.743Z,53.60
2018-08-04T18:55:52.001Z,53.60
2018-08-04T18:58:23.192Z,53.80
2018-08-04T19:00:54.515Z,53.70
2018-08-04T19:03:25.697Z,53.70
2018-08-04T19:05:56.748Z,53.80
2018-08-04T19:08:27.871Z,53.80
2018-08-04T19:10:58.335Z,53.50
2018-08-04T19:13:29.582Z,53.70
2018-08-04T19:16:00.816Z,53.80
2018-08-04T19:18:31.844Z,53.70
2018-08-04T19:21:02.318Z,53.60
2018-08-04T19:23:33.594Z,53.40
2018-08-04T19:26:04.732Z,53.80
2018-08-04T19:28:35.876Z,53.80
2018-08-04T19:31:06.355Z,54.10
2018-08-04T19:33:37.583Z,53.80
2018-08-04T19:36:08.719Z,53.80
2018-08-04T19:38:39.814Z,53.80
2018-08-04T19:41:10.303Z,53.30
2018-08-04T19:43:41.629Z,53.40
2018-08-04T19:46:12.731Z,53.80
2018-08-04T19:48:43.856Z,53.80
2018-08-04T19:51:14.355Z,53.20
2018-08-04T19:53:45.589Z,53.50
2018-08-04T19:56:16.755Z,53.80
2018-08-04T19:58:47.820Z,53.60
2018-08-04T20:01:18.386Z,53.30
2018-08-04T20:03:49.634Z,53.30
2018-08-04T20:06:20.793Z,53.60
2018-08-04T20:08:51.856Z,53.60
2018-08-04T20:11:22.352Z,53.30
2018-08-04T20:13:53.641Z,53.30
2018-08-04T20:16:25.190Z,53.50
2018-08-04T20:18:56.428Z,53.30
2018-08-04T20:21:27.653Z,53.40
2018-08-04T20:23:58.726Z,53.40
2018-08-04T20:26:29.858Z,53.20
2018-08-04T20:29:00.380Z,53.90
2018-08-04T20:31:31.604Z,53.10
2018-08-04T20:34:02.679Z,53.20
2018-08-04T20:36:33.782Z,53.10
2018-08-04T20:39:16.594Z,53.10
2018-08-04T20:41:47.734Z,52.90
2018-08-04T20:44:18.836Z,53.00
2018-08-04T20:46:49.387Z,52.80
2018-08-04T20:49:20.635Z,52.50
2018-08-04T20:51:51.892Z,52.40
2018-08-04T20:54:22.400Z,52.70
2018-08-04T20:56:53.682Z,52.80
2018-08-04T20:59:24.683Z,52.50
2018-08-04T21:02:05.204Z,52.80
2018-08-04T21:04:37.301Z,52.80
2018-08-04T21:07:08.609Z,52.80
2018-08-04T21:09:40.612Z,53.00
2018-08-04T21:12:12.560Z,52.80
2018-08-04T21:14:44.420Z,52.80
2018-08-04T21:17:19.235Z,53.00
2018-08-04T21:19:51.311Z,53.10
2018-08-04T21:22:23.628Z,53.00
2018-08-04T21:24:59.013Z,53.30
2018-08-04T21:27:30.253Z,53.20
2018-08-04T21:30:02.300Z,53.20
2018-08-04T21:32:36.211Z,53.10
2018-08-04T21:35:09.340Z,53.10
2018-08-04T21:37:42.296Z,53.80
2018-08-04T21:40:14.285Z,53.20
2018-08-04T21:42:45.973Z,53.30
2018-08-04T21:45:17.745Z,53.10
2018-08-04T21:47:50.795Z,53.40
2018-08-04T21:50:23.727Z,53.00
2018-08-04T21:52:58.677Z,52.90
2018-08-04T21:55:30.777Z,53.30
2018-08-04T21:58:07.220Z,52.90
2018-08-04T22:00:42.317Z,52.30
2018-08-04T22:03:14.305Z,52.50
2018-08-04T22:05:47.071Z,52.50
2018-08-04T22:08:41.436Z,52.60
2018-08-04T22:11:15.994Z,53.20
2018-08-04T22:13:50.297Z,52.70
2018-08-04T22:16:21.558Z,52.20
2018-08-04T22:18:52.676Z,52.20
2018-08-04T22:21:25.410Z,52.40
2018-08-04T22:23:56.665Z,52.20
2018-08-04T22:26:27.691Z,52.30
2018-08-04T22:29:00.675Z,52.10
2018-08-04T22:31:32.213Z,52.00
2018-08-04T22:34:04.048Z,51.90
2018-08-04T22:36:36.519Z,52.10
2018-08-04T22:39:08.868Z,52.30
2018-08-04T22:41:40.304Z,52.10
2018-08-04T22:44:11.838Z,52.60
2018-08-04T22:46:43.218Z,52.30
2018-08-04T22:49:15.619Z,51.50
2018-08-04T22:51:50.272Z,52.10
2018-08-04T22:54:21.557Z,52.10
2018-08-04T22:59:40.002Z,52.30
2018-08-04T23:02:12.605Z,52.30
2018-08-04T23:04:45.348Z,52.50
2018-08-04T23:07:17.431Z,52.40
2018-08-04T23:09:48.696Z,52.40
2018-08-04T23:12:22.968Z,52.20
2018-08-04T23:14:53.992Z,52.20
2018-08-04T23:20:12.199Z,52.40
2018-08-04T23:22:44.590Z,52.00
2018-08-04T23:25:18.729Z,52.70
2018-08-04T23:27:51.588Z,52.70
2018-08-04T23:30:23.213Z,52.50
2018-08-04T23:32:55.481Z,52.70
2018-08-04T23:35:27.482Z,53.10
2018-08-04T23:37:58.667Z,52.80
2018-08-04T23:40:29.678Z,52.90
2018-08-04T23:43:01.458Z,52.90
2018-08-04T23:45:33.874Z,52.80
2018-08-04T23:48:05.479Z,53.00
2018-08-04T23:50:37.625Z,52.90
2018-08-04T23:53:10.681Z,53.00
2018-08-04T23:55:45.185Z,53.20
2018-08-04T23:58:17.299Z,53.00
